Time;durP1;ratioP1;P1;durP2;ratioP2;P2;SDS_P1;SDS_P2;PMS_P1;PMS_P2;Temp;Humidity;BMP_temperature;BMP_pressure;BME280_temperature;BME280_humidity;BME280_pressure;Samples;Min_cycle;Max_cycle;Signal;HPM_P1;HPM_P2
2022/10/31 00:01:29;;;;;;;3.70;1.05;;;;;;;13.23;85.96;102152.63;5035060;27;99414;-30
2022/10/31 00:03:55;;;;;;;1.98;0.73;;;;;;;13.18;85.89;102150.16;5033958;28;96576;-29
2022/10/31 00:06:21;;;;;;;1.10;0.75;;;;;;;13.16;86.15;102150.25;5035497;27;96859;-31
2022/10/31 00:08:52;;;;;;;4.45;1.55;;;;;;;13.20;86.18;102152.78;5033589;28;101102;-30
2022/10/31 00:11:17;;;;;;;2.00;1.25;;;;;;;13.17;86.15;102148.41;5032980;28;101060;-30
2022/10/31 00:13:42;;;;;;;4.47;1.40;;;;;;;13.15;86.28;102147.59;5034447;27;103293;-30
2022/10/31 00:16:16;;;;;;;5.10;1.02;;;;;;;13.14;86.08;102144.00;5034281;27;109786;-31
2022/10/31 00:18:41;;;;;;;2.65;1.40;;;;;;;13.14;85.92;102154.00;5033550;28;101210;-30
2022/10/31 00:21:06;;;;;;;3.65;1.25;;;;;;;13.13;86.53;102150.41;5034560;27;112751;-30
2022/10/31 00:23:32;;;;;;;3.92;1.60;;;;;;;13.13;86.25;102146.78;5034645;28;96704;-29
2022/10/31 00:26:04;;;;;;;3.03;1.00;;;;;;;13.13;86.14;102158.56;5035462;27;96730;-30
2022/10/31 00:28:30;;;;;;;2.15;1.23;;;;;;;13.10;86.37;102158.69;5033441;28;101286;-30
2022/10/31 00:30:59;;;;;;;2.72;1.15;;;;;;;13.07;86.19;102158.00;5034596;28;99258;-30
2022/10/31 00:33:24;;;;;;;2.17;1.38;;;;;;;13.06;86.38;102168.00;5033831;28;96630;-30
2022/10/31 00:35:50;;;;;;;2.33;1.13;;;;;;;13.04;86.39;102164.47;5034736;28;99277;-30
2022/10/31 00:38:16;;;;;;;3.45;1.70;;;;;;;13.03;86.40;102169.97;5034840;28;97458;-30
2022/10/31 00:40:41;;;;;;;2.72;1.63;;;;;;;13.00;86.64;102170.16;5034715;27;99256;-29
2022/10/31 00:43:06;;;;;;;5.35;1.90;;;;;;;12.98;86.51;102172.06;5034957;27;96550;-29
2022/10/31 00:45:31;;;;;;;2.42;1.15;;;;;;;12.95;86.37;102173.09;5034684;27;103482;-30
2022/10/31 00:47:57;;;;;;;1.77;1.00;;;;;;;12.96;86.62;102172.13;5033852;28;111598;-29
2022/10/31 00:50:22;;;;;;;2.50;1.30;;;;;;;12.93;86.60;102166.84;5034091;27;110713;-29
2022/10/31 00:52:47;;;;;;;5.53;1.52;;;;;;;12.90;86.66;102172.44;5035007;27;96613;-30
2022/10/31 00:55:13;;;;;;;2.75;1.23;;;;;;;12.87;86.77;102169.88;5034628;28;96800;-31
2022/10/31 00:57:38;;;;;;;2.67;1.50;;;;;;;12.86;86.79;102162.69;5034476;27;97479;-29
2022/10/31 01:00:04;;;;;;;3.28;1.63;;;;;;;12.83;86.82;102150.13;5034201;28;109653;-29
2022/10/31 01:02:29;;;;;;;2.13;1.23;;;;;;;12.78;86.82;102140.44;5033100;28;96597;-30
2022/10/31 01:04:55;;;;;;;3.50;1.63;;;;;;;12.76;86.48;102132.34;5035113;28;96782;-30
2022/10/31 01:07:20;;;;;;;3.22;1.63;;;;;;;12.75;86.61;102149.59;5034242;27;99266;-30
2022/10/31 01:09:45;;;;;;;3.55;1.33;;;;;;;12.70;86.62;102152.59;5034258;28;101184;-30
2022/10/31 01:12:10;;;;;;;3.42;1.45;;;;;;;12.70;86.98;102149.88;5033697;27;106073;-30
2022/10/31 01:14:36;;;;;;;6.43;1.40;;;;;;;12.68;86.92;102143.63;5034769;27;96704;-30
2022/10/31 01:17:01;;;;;;;6.18;1.80;;;;;;;12.66;86.87;102147.38;5033588;27;101330;-30
2022/10/31 01:19:26;;;;;;;3.15;1.42;;;;;;;12.64;86.82;102142.00;5034312;27;100515;-30
2022/10/31 01:21:54;;;;;;;3.03;1.55;;;;;;;12.60;86.79;102140.38;5034243;27;101159;-29
2022/10/31 01:24:20;;;;;;;2.20;1.23;;;;;;;12.57;86.97;102145.09;5035482;27;96943;-29
2022/10/31 01:26:45;;;;;;;3.85;2.00;;;;;;;12.51;86.97;102135.38;5037485;27;97993;-30
2022/10/31 01:29:10;;;;;;;3.97;1.83;;;;;;;12.49;87.09;102142.75;5037822;28;103379;-30
2022/10/31 01:31:38;;;;;;;2.25;1.27;;;;;;;12.47;87.21;102136.53;5037983;28;96619;-29
2022/10/31 01:34:05;;;;;;;3.70;1.40;;;;;;;12.46;87.27;102142.88;5036521;27;96685;-30
2022/10/31 01:36:36;;;;;;;1.95;1.40;;;;;;;12.42;87.09;102131.31;5035660;28;101398;-29
2022/10/31 01:39:05;;;;;;;3.63;1.50;;;;;;;12.40;86.89;102125.06;5037280;28;99436;-31
2022/10/31 01:41:33;;;;;;;4.30;1.52;;;;;;;12.38;86.98;102126.97;5036248;27;97486;-30
2022/10/31 01:44:02;;;;;;;4.95;1.95;;;;;;;12.37;87.35;102127.94;5037744;27;96882;-30
2022/10/31 01:46:38;;;;;;;4.18;1.58;;;;;;;12.35;87.70;102127.13;5035901;28;101052;-30
2022/10/31 01:49:12;;;;;;;4.20;1.77;;;;;;;12.32;87.29;102117.28;5035944;28;100653;-29
2022/10/31 01:51:45;;;;;;;7.60;1.42;;;;;;;12.32;87.52;102114.56;5036114;28;96772;-30
2022/10/31 01:54:15;;;;;;;3.03;1.45;;;;;;;12.32;87.43;102125.44;5036320;28;96854;-31
2022/10/31 01:56:44;;;;;;;5.38;2.00;;;;;;;12.32;87.45;102119.09;5035852;28;99567;-29
2022/10/31 01:59:12;;;;;;;3.72;1.67;;;;;;;12.28;87.50;102123.81;5037067;27;97303;-30
2022/10/31 02:01:37;;;;;;;4.63;1.70;;;;;;;12.27;87.25;102129.31;5035513;28;96643;-30
2022/10/31 02:04:04;;;;;;;5.03;2.05;;;;;;;12.25;87.41;102123.06;5037128;27;96808;-30
2022/10/31 02:06:40;;;;;;;3.60;2.03;;;;;;;12.21;87.25;102127.78;5035688;28;101008;-31
2022/10/31 02:09:06;;;;;;;8.43;2.45;;;;;;;12.21;87.41;102124.19;5036772;27;99052;-30
2022/10/31 02:11:34;;;;;;;3.80;1.95;;;;;;;12.17;87.56;102126.16;5035942;28;96635;-29
2022/10/31 02:14:01;;;;;;;3.30;1.85;;;;;;;12.18;87.74;102127.03;5035958;28;96891;-31
2022/10/31 02:16:26;;;;;;;4.93;2.60;;;;;;;12.14;87.84;102123.59;5035957;27;98000;-30
2022/10/31 02:18:52;;;;;;;5.05;2.25;;;;;;;12.14;87.70;102129.03;5037295;27;97248;-30
2022/10/31 02:21:42;;;;;;;3.88;1.98;;;;;;;12.15;87.93;102127.19;5037207;27;96455;-30
2022/10/31 02:24:28;;;;;;;4.95;2.25;;;;;;;12.12;88.15;102122.78;5035651;28;96718;-31
2022/10/31 02:27:09;;;;;;;3.30;2.05;;;;;;;12.13;88.08;102123.66;5036396;27;97915;-30
2022/10/31 02:29:49;;;;;;;4.07;2.33;;;;;;;12.13;88.39;102121.81;5035378;28;100961;-30
2022/10/31 02:32:25;;;;;;;4.85;2.60;;;;;;;12.13;88.37;102118.22;5035705;28;96828;-31
2022/10/31 02:35:03;;;;;;;6.28;2.60;;;;;;;12.13;88.03;102121.81;5036023;27;96532;-30
2022/10/31 02:37:42;;;;;;;4.30;1.88;;;;;;;12.13;88.25;102119.09;5035047;27;100944;-30
2022/10/31 02:40:33;;;;;;;8.75;2.50;;;;;;;12.10;87.84;102122.84;5036235;28;103390;-31
2022/10/31 02:43:16;;;;;;;5.22;2.53;;;;;;;12.09;87.98;102112.94;5037104;27;96757;-30
2022/10/31 02:45:48;;;;;;;6.15;2.63;;;;;;;12.09;88.25;102120.22;5037006;28;96597;-30
2022/10/31 02:48:20;;;;;;;11.55;2.70;;;;;;;12.06;87.98;102118.53;5034992;28;100782;-30
2022/10/31 02:50:56;;;;;;;5.15;2.75;;;;;;;12.04;87.93;102114.13;5035141;28;101047;-29
2022/10/31 02:53:21;;;;;;;6.68;2.60;;;;;;;12.00;88.12;102126.09;5036424;28;96700;-30
2022/10/31 02:56:14;;;;;;;4.63;2.55;;;;;;;11.98;87.93;102125.28;5036677;27;96827;-30
2022/10/31 02:58:45;;;;;;;5.10;2.85;;;;;;;11.97;88.26;102124.41;5036386;27;97939;-30
2022/10/31 03:01:24;;;;;;;3.97;2.70;;;;;;;11.94;88.34;102126.34;5034960;28;101032;-32
2022/10/31 03:04:06;;;;;;;3.95;2.60;;;;;;;11.91;88.35;102116.53;5034971;27;96799;-30
2022/10/31 03:07:00;;;;;;;5.85;2.72;;;;;;;11.90;88.25;102114.78;5034918;28;96823;-30
2022/10/31 03:09:50;;;;;;;7.85;3.05;;;;;;;11.87;88.18;102123.94;5036062;28;99181;-30
2022/10/31 03:12:37;;;;;;;4.78;2.60;;;;;;;11.85;88.08;102123.09;5036434;28;97852;-30
2022/10/31 03:15:19;;;;;;;5.18;2.85;;;;;;;11.86;88.26;102127.56;5034576;28;96523;-30
2022/10/31 03:18:03;;;;;;;5.40;2.83;;;;;;;11.84;88.23;102128.59;5034761;28;96765;-30
2022/10/31 03:20:36;;;;;;;6.10;3.08;;;;;;;11.80;88.01;102125.16;5036026;27;97400;-31
2022/10/31 03:23:02;;;;;;;4.63;2.72;;;;;;;11.78;88.31;102129.78;5036045;28;97927;-30
2022/10/31 03:25:31;;;;;;;5.05;2.47;;;;;;;11.75;88.19;102127.19;5034632;28;96678;-31
2022/10/31 03:28:00;;;;;;;4.45;2.10;;;;;;;11.74;88.08;102136.28;5036161;27;96783;-30
2022/10/31 03:30:26;;;;;;;5.32;2.78;;;;;;;11.73;88.35;102139.06;5035920;27;97288;-30
2022/10/31 03:32:55;;;;;;;8.45;3.00;;;;;;;11.71;88.27;102138.28;5035786;27;97311;-31
2022/10/31 03:35:24;;;;;;;7.28;2.80;;;;;;;11.69;88.13;102133.78;5034592;28;96730;-31
2022/10/31 03:37:53;;;;;;;5.28;2.65;;;;;;;11.69;88.38;102136.50;5034518;28;96816;-30
2022/10/31 03:40:21;;;;;;;5.53;2.42;;;;;;;11.67;88.55;102132.09;5034202;28;100998;-31
2022/10/31 03:42:53;;;;;;;5.60;3.15;;;;;;;11.66;88.58;102125.78;5034185;28;101582;-30
2022/10/31 03:45:25;;;;;;;5.00;2.90;;;;;;;11.69;88.60;102116.63;5017890;28;96652;-31
2022/10/31 03:47:52;;;;;;;5.07;2.92;;;;;;;11.64;88.56;102113.22;5035538;27;96664;-32
2022/10/31 03:50:19;;;;;;;3.97;2.13;;;;;;;11.64;88.27;102121.38;5033640;28;101098;-30
2022/10/31 03:52:52;;;;;;;5.90;3.03;;;;;;;11.61;88.45;102125.13;5033858;28;100774;-30
2022/10/31 03:55:58;;;;;;;7.03;3.22;;;;;;;11.63;89.05;102123.22;5034322;28;96631;-29
2022/10/31 03:59:02;;;;;;;7.53;2.80;;;;;;;11.65;89.37;102118.56;5003572;28;97053;-30
2022/10/31 04:01:30;;;;;;;7.95;3.05;;;;;;;11.60;89.71;102120.63;5035235;28;99942;-30
2022/10/31 04:03:57;;;;;;;8.38;3.58;;;;;;;11.62;90.02;102123.28;5034084;28;100968;-29
2022/10/31 04:06:25;;;;;;;7.47;3.13;;;;;;;11.62;89.77;102121.44;5035691;27;96403;-30
2022/10/31 04:09:00;;;;;;;6.18;3.53;;;;;;;11.62;89.86;102118.72;5034044;28;96823;-30
2022/10/31 04:11:31;;;;;;;4.97;2.60;;;;;;;11.63;89.64;102119.59;5033258;28;101838;-29
2022/10/31 04:13:59;;;;;;;5.13;2.80;;;;;;;11.62;89.66;102113.28;5033758;28;100897;-30
2022/10/31 04:16:25;;;;;;;6.53;3.40;;;;;;;11.60;89.75;102112.47;5033258;28;96916;-32
2022/10/31 04:18:51;;;;;;;8.32;3.08;;;;;;;11.61;89.82;102118.81;5034027;28;96779;-29
2022/10/31 04:21:17;;;;;;;6.03;3.10;;;;;;;11.61;90.19;102121.53;5035133;27;98072;-30
2022/10/31 04:23:42;;;;;;;8.88;3.75;;;;;;;11.60;89.90;102123.34;5034029;27;113308;-31
2022/10/31 04:26:11;;;;;;;7.05;3.40;;;;;;;11.59;89.92;102120.72;5035379;27;96692;-30
2022/10/31 04:28:37;;;;;;;7.95;3.45;;;;;;;11.59;89.85;102121.59;5034171;28;97142;-31
2022/10/31 04:31:02;;;;;;;6.85;2.95;;;;;;;11.58;89.45;102116.22;5034717;27;99340;-30
2022/10/31 04:33:27;;;;;;;7.97;3.80;;;;;;;11.54;89.58;102118.19;5034918;27;97798;-30
2022/10/31 04:35:53;;;;;;;6.40;3.20;;;;;;;11.51;89.72;102118.31;5034510;27;96606;-31
2022/10/31 04:38:18;;;;;;;6.07;3.03;;;;;;;11.48;89.44;102113.91;5035052;27;96813;-31
2022/10/31 04:40:44;;;;;;;6.57;3.35;;;;;;;11.50;89.45;102115.69;5034605;28;101956;-30
2022/10/31 04:43:10;;;;;;;9.27;3.35;;;;;;;11.47;89.75;102123.03;5034692;28;97465;-32
2022/10/31 04:45:35;;;;;;;6.00;3.25;;;;;;;11.46;89.65;102114.94;5035003;27;96506;-31
2022/10/31 04:48:00;;;;;;;5.57;3.08;;;;;;;11.44;89.53;102123.16;5034540;28;101663;-30
2022/10/31 04:50:25;;;;;;;9.20;3.22;;;;;;;11.44;89.50;102114.13;5034469;28;103368;-31
2022/10/31 04:52:51;;;;;;;5.90;2.80;;;;;;;11.43;89.54;102120.50;5034128;28;115704;-30
2022/10/31 04:55:16;;;;;;;5.70;2.63;;;;;;;11.44;89.57;102119.53;5033902;28;111892;-30
2022/10/31 04:57:43;;;;;;;5.88;2.80;;;;;;;11.41;89.29;102116.97;5034453;27;103496;-30
2022/10/31 05:00:11;;;;;;;7.60;3.33;;;;;;;11.38;89.27;102108.97;5036191;27;98927;-29
2022/10/31 05:02:47;;;;;;;7.13;2.88;;;;;;;11.34;89.34;102108.22;5036381;28;100458;-30
2022/10/31 05:05:14;;;;;;;6.35;3.20;;;;;;;11.30;89.29;102112.03;5038529;28;96630;-31
2022/10/31 05:07:45;;;;;;;4.90;2.65;;;;;;;11.30;89.58;102113.84;5036852;28;96863;-30
2022/10/31 05:10:12;;;;;;;5.50;2.60;;;;;;;11.27;89.84;102102.22;5036608;27;100828;-30
2022/10/31 05:12:44;;;;;;;11.43;3.17;;;;;;;11.28;89.75;102103.09;5036507;28;101287;-30
2022/10/31 05:15:10;;;;;;;14.13;3.78;;;;;;;11.30;89.79;102098.47;5036274;28;98711;-29
2022/10/31 05:17:35;;;;;;;9.65;3.55;;;;;;;11.29;89.99;102095.81;5038936;27;96530;-31
2022/10/31 05:20:00;;;;;;;7.18;3.55;;;;;;;11.26;90.14;102086.88;5037160;28;111500;-31
2022/10/31 05:22:25;;;;;;;5.43;3.22;;;;;;;11.24;90.00;102083.34;5038113;28;100485;-30
2022/10/31 05:24:51;;;;;;;5.40;2.92;;;;;;;11.25;90.10;102085.13;5036615;27;112141;-31
2022/10/31 05:27:16;;;;;;;4.32;2.70;;;;;;;11.26;89.84;102081.44;5037472;27;107545;-30
2022/10/31 05:29:41;;;;;;;5.53;2.90;;;;;;;11.22;89.44;102085.22;5037771;27;97906;-30
2022/10/31 05:32:07;;;;;;;5.80;3.38;;;;;;;11.21;89.63;102072.63;5037063;28;119178;-30
2022/10/31 05:34:32;;;;;;;5.60;2.83;;;;;;;11.21;89.69;102077.19;5037743;28;96628;-30
2022/10/31 05:36:57;;;;;;;7.32;3.30;;;;;;;11.18;89.67;102074.63;5037495;28;103122;-30
2022/10/31 05:39:22;;;;;;;4.75;2.90;;;;;;;11.17;89.45;102080.97;5037586;28;99573;-31
2022/10/31 05:41:48;;;;;;;7.43;3.28;;;;;;;11.13;89.50;102082.97;5037665;28;109736;-30
2022/10/31 05:44:13;;;;;;;6.60;3.40;;;;;;;11.11;89.51;102079.44;5037281;28;103967;-30
2022/10/31 05:46:38;;;;;;;13.15;3.45;;;;;;;11.12;89.55;102083.88;5037683;28;96800;-30
2022/10/31 05:49:03;;;;;;;5.53;3.13;;;;;;;11.10;89.81;102091.22;5035891;27;119804;-29
2022/10/31 05:51:29;;;;;;;7.15;3.05;;;;;;;11.08;89.73;102084.09;5037407;28;99352;-32
2022/10/31 05:53:54;;;;;;;5.35;3.03;;;;;;;11.06;89.75;102084.19;5036734;27;108743;-30
2022/10/31 05:56:19;;;;;;;8.40;3.55;;;;;;;11.04;89.85;102078.81;5036597;28;112836;-30
2022/10/31 05:58:45;;;;;;;6.88;3.08;;;;;;;11.07;89.71;102080.50;5036516;28;117106;-31
2022/10/31 06:01:10;;;;;;;7.30;3.20;;;;;;;11.04;89.66;102076.09;5036510;28;122888;-30
2022/10/31 06:03:35;;;;;;;6.00;3.03;;;;;;;11.01;89.69;102075.34;5037094;27;96779;-30
2022/10/31 06:06:01;;;;;;;7.72;3.38;;;;;;;11.02;89.69;102074.41;5037661;27;96910;-30
2022/10/31 06:08:27;;;;;;;6.85;2.97;;;;;;;10.97;89.69;102063.75;5037106;27;98167;-30
2022/10/31 06:10:53;;;;;;;7.28;3.75;;;;;;;10.98;90.00;102079.06;5035454;27;100739;-30
2022/10/31 06:13:18;;;;;;;7.97;3.67;;;;;;;10.99;89.74;102086.28;5035429;28;96745;-30
2022/10/31 06:15:44;;;;;;;8.65;3.08;;;;;;;10.96;89.75;102077.38;5036479;27;96902;-30
2022/10/31 06:18:09;;;;;;;10.05;4.22;;;;;;;10.95;89.67;102084.63;5036413;28;113732;-30
2022/10/31 06:20:34;;;;;;;7.03;3.38;;;;;;;10.94;89.83;102091.00;5036956;28;98294;-30
2022/10/31 06:23:00;;;;;;;7.07;3.60;;;;;;;10.94;89.77;102093.72;5037202;27;96556;-31
2022/10/31 06:25:26;;;;;;;11.77;3.53;;;;;;;10.91;89.92;102098.38;5035724;28;96819;-30
2022/10/31 06:27:51;;;;;;;9.73;4.40;;;;;;;10.93;90.15;102088.34;5036869;28;97935;-30
2022/10/31 06:30:17;;;;;;;8.60;4.03;;;;;;;10.91;89.64;102084.81;5036712;27;112651;-30
2022/10/31 06:32:42;;;;;;;10.00;4.30;;;;;;;10.91;89.86;102084.81;5036719;27;96713;-31
2022/10/31 06:35:07;;;;;;;9.45;4.60;;;;;;;10.93;89.94;102081.09;5036981;27;96799;-31
2022/10/31 06:37:33;;;;;;;10.23;4.72;;;;;;;10.93;89.85;102086.53;5036301;28;99710;-29
2022/10/31 06:39:58;;;;;;;10.20;4.95;;;;;;;10.93;89.94;102086.53;5036611;28;101942;-31
2022/10/31 06:42:23;;;;;;;11.32;4.10;;;;;;;10.93;89.84;102080.22;5037053;27;96651;-31
2022/10/31 06:44:49;;;;;;;12.80;4.45;;;;;;;10.94;90.07;102079.25;5036455;28;101154;-30
2022/10/31 06:47:14;;;;;;;9.30;4.28;;;;;;;10.95;90.40;102083.75;5036393;28;101356;-31
2022/10/31 06:49:39;;;;;;;12.27;4.10;;;;;;;10.98;89.99;102081.78;5036616;27;97441;-32
2022/10/31 06:52:04;;;;;;;11.68;5.53;;;;;;;10.98;90.15;102072.78;5036446;28;96915;-30
2022/10/31 06:54:30;;;;;;;8.25;4.05;;;;;;;10.98;89.98;102076.34;5036800;27;96810;-31
2022/10/31 06:56:55;;;;;;;9.63;4.20;;;;;;;11.01;90.26;102087.09;5036382;27;97527;-30
2022/10/31 06:59:21;;;;;;;8.85;3.95;;;;;;;11.00;90.64;102089.84;5035602;28;117256;-30
2022/10/31 07:01:46;;;;;;;14.50;5.78;;;;;;;11.00;90.44;102096.16;5035774;28;96482;-30
2022/10/31 07:04:12;;;;;;;8.95;4.50;;;;;;;11.00;90.37;102096.16;5036044;28;96824;-30
2022/10/31 07:06:37;;;;;;;10.10;4.90;;;;;;;11.03;90.22;102095.13;5035850;27;100703;-29
2022/10/31 07:09:03;;;;;;;11.48;5.13;;;;;;;11.07;90.46;102106.75;5036330;27;97740;-31
2022/10/31 07:11:28;;;;;;;9.95;5.32;;;;;;;11.08;90.70;102101.22;5036458;27;96892;-30
2022/10/31 07:13:54;;;;;;;9.25;4.75;;;;;;;11.08;91.23;102100.34;5036613;28;96737;-30
2022/10/31 07:16:19;;;;;;;8.07;4.55;;;;;;;11.10;91.59;102096.63;5033570;27;97455;-30
2022/10/31 07:18:44;;;;;;;13.23;5.00;;;;;;;11.12;91.93;102094.75;5035881;27;103950;-31
2022/10/31 07:21:09;;;;;;;12.85;5.53;;;;;;;11.16;92.47;102107.22;5033871;28;100627;-30
2022/10/31 07:23:35;;;;;;;10.57;5.80;;;;;;;11.20;92.05;102102.53;5035948;28;100492;-30
2022/10/31 07:26:00;;;;;;;12.05;4.78;;;;;;;11.22;91.56;102100.63;5035341;28;97928;-29
2022/10/31 07:28:27;;;;;;;10.65;5.28;;;;;;;11.24;91.01;102104.16;5035591;27;99118;-30
2022/10/31 07:30:54;;;;;;;10.93;5.32;;;;;;;11.27;90.54;102095.88;5034633;28;96691;-30
2022/10/31 07:33:20;;;;;;;12.43;5.38;;;;;;;11.29;91.09;102106.69;5034481;28;97036;-30
2022/10/31 07:35:45;;;;;;;10.15;5.43;;;;;;;11.31;90.96;102111.09;5036152;27;97348;-33
2022/10/31 07:38:12;;;;;;;10.73;5.22;;;;;;;11.31;91.19;102107.50;5034096;27;97252;-30
2022/10/31 07:40:38;;;;;;;15.05;5.30;;;;;;;11.32;91.68;102111.97;5033607;28;96657;-30
2022/10/31 07:43:04;;;;;;;16.08;5.50;;;;;;;11.34;91.71;102107.34;5034322;28;96723;-30
2022/10/31 07:45:30;;;;;;;9.82;5.15;;;;;;;11.37;91.88;102108.09;5035239;27;97866;-29
2022/10/31 07:47:55;;;;;;;11.32;4.80;;;;;;;11.41;91.63;102111.56;5035273;27;99344;-30
2022/10/31 07:50:27;;;;;;;10.95;5.47;;;;;;;11.41;91.94;102112.41;5035194;28;96766;-29
2022/10/31 07:53:02;;;;;;;14.73;5.50;;;;;;;11.42;91.70;102108.78;5034248;28;96706;-30
2022/10/31 07:55:28;;;;;;;11.25;5.07;;;;;;;11.44;91.88;102114.13;5033632;28;100941;-30
2022/10/31 07:58:00;;;;;;;11.48;5.63;;;;;;;11.44;91.89;102112.31;5035483;27;97762;-30
2022/10/31 08:00:26;;;;;;;10.35;5.10;;;;;;;11.43;91.69;102109.66;5033998;28;96728;-31
2022/10/31 08:03:06;;;;;;;15.50;5.20;;;;;;;11.46;91.65;102109.50;5035638;28;96732;-30
2022/10/31 08:05:32;;;;;;;13.05;5.40;;;;;;;11.45;92.47;102111.34;5035228;27;98813;-30
2022/10/31 08:07:58;;;;;;;11.02;5.30;;;;;;;11.47;92.88;102101.31;5033986;28;100739;-30
2022/10/31 08:10:24;;;;;;;15.45;4.80;;;;;;;11.48;93.53;102104.91;5035343;27;96599;-30
2022/10/31 08:13:19;;;;;;;13.35;5.97;;;;;;;11.51;92.96;102106.59;5035031;28;96856;-30
2022/10/31 08:15:49;;;;;;;10.73;5.15;;;;;;;11.52;94.19;102102.94;5033121;27;98055;-30
2022/10/31 08:18:15;;;;;;;13.00;5.80;;;;;;;11.54;92.91;102109.19;5034622;27;98780;-30
2022/10/31 08:20:41;;;;;;;13.05;5.57;;;;;;;11.56;93.21;102097.31;5033917;28;96563;-30
2022/10/31 08:23:09;;;;;;;12.23;5.07;;;;;;;11.59;92.72;102093.56;5033391;28;96811;-30
2022/10/31 08:25:35;;;;;;;8.70;4.60;;;;;;;11.65;92.37;102095.97;5033501;28;101134;-30
2022/10/31 08:28:01;;;;;;;12.02;5.47;;;;;;;11.66;92.54;102098.63;5034844;27;97736;-29
2022/10/31 08:30:29;;;;;;;14.55;5.60;;;;;;;11.71;93.37;102097.56;5035028;27;96600;-31
2022/10/31 08:33:00;;;;;;;12.65;5.20;;;;;;;11.72;92.88;102094.75;5033028;28;96918;-29
2022/10/31 08:35:25;;;;;;;11.50;5.38;;;;;;;11.77;92.88;102098.13;5034671;28;97416;-30
2022/10/31 08:37:55;;;;;;;9.25;4.60;;;;;;;11.81;92.60;102094.31;5034408;27;98812;-31
2022/10/31 08:40:20;;;;;;;11.20;5.53;;;;;;;11.85;92.62;102100.50;5033194;28;96746;-30
2022/10/31 08:42:45;;;;;;;13.38;5.68;;;;;;;11.88;92.88;102109.41;5035108;28;96755;-29
2022/10/31 08:45:11;;;;;;;11.35;5.20;;;;;;;11.91;94.63;102100.22;5034040;28;113945;-29
2022/10/31 08:47:36;;;;;;;10.20;4.85;;;;;;;11.89;94.35;102097.63;5034827;27;97896;-29
2022/10/31 08:50:02;;;;;;;12.82;5.47;;;;;;;11.97;95.75;102090.94;5034704;27;99965;-30
2022/10/31 08:52:27;;;;;;;9.38;4.95;;;;;;;12.01;94.57;102089.81;5033243;28;96928;-29
2022/10/31 08:54:52;;;;;;;11.75;5.43;;;;;;;12.10;93.47;102086.66;5034338;27;97899;-30
2022/10/31 08:57:18;;;;;;;10.00;4.93;;;;;;;12.19;93.98;102088.94;5034800;27;99048;-30
2022/10/31 08:59:43;;;;;;;12.82;5.40;;;;;;;12.23;94.50;102079.69;5034012;28;110157;-30
2022/10/31 09:02:08;;;;;;;11.05;5.57;;;;;;;12.28;93.70;102068.59;5034411;28;102147;-29
2022/10/31 09:04:33;;;;;;;13.13;5.53;;;;;;;12.37;93.60;102072.69;5031671;28;121705;-30
2022/10/31 09:06:59;;;;;;;10.93;4.93;;;;;;;12.42;92.88;102067.91;5032263;28;122155;-29
2022/10/31 09:09:24;;;;;;;11.85;6.68;;;;;;;12.49;93.38;102053.06;5032008;28;96892;-30
2022/10/31 09:11:49;;;;;;;11.88;6.07;;;;;;;12.58;92.81;102049.00;5033619;28;103604;-30
2022/10/31 09:14:14;;;;;;;12.85;5.32;;;;;;;12.66;92.90;102055.81;5013192;28;125233;-30
2022/10/31 09:16:40;;;;;;;13.18;5.20;;;;;;;12.76;93.16;102056.22;5013199;28;105250;-30
2022/10/31 09:19:05;;;;;;;11.75;5.05;;;;;;;12.80;92.65;102041.50;5014347;28;96600;-32
2022/10/31 09:21:30;;;;;;;15.15;5.70;;;;;;;12.83;93.17;102041.34;5014509;28;102079;-29
2022/10/31 09:23:56;;;;;;;10.40;5.07;;;;;;;12.88;92.46;102027.50;5013894;28;99982;-30
2022/10/31 09:26:21;;;;;;;10.07;4.82;;;;;;;12.95;92.53;102028.94;5013558;28;116210;-30
2022/10/31 09:28:46;;;;;;;10.82;6.00;;;;;;;12.99;92.04;102019.69;5013385;28;101554;-29
2022/10/31 09:31:12;;;;;;;11.35;5.20;;;;;;;13.05;91.59;102029.34;5014461;28;96884;-30
2022/10/31 09:33:37;;;;;;;11.38;5.55;;;;;;;13.10;92.29;102033.56;5014144;28;97944;-29
2022/10/31 09:36:02;;;;;;;12.18;5.80;;;;;;;13.15;92.43;102031.47;5013508;28;107665;-31
2022/10/31 09:38:28;;;;;;;11.77;5.53;;;;;;;13.20;92.51;102023.06;5014163;28;96624;-29
2022/10/31 09:41:15;;;;;;;15.70;5.50;;;;;;;13.26;92.33;102021.88;5014054;28;97673;-29
2022/10/31 09:44:09;;;;;;;14.93;5.85;;;;;;;13.28;92.29;102020.88;5013842;28;97589;-30
2022/10/31 09:46:41;;;;;;;11.52;5.63;;;;;;;13.35;91.82;102018.69;5016790;28;99508;-29
2022/10/31 09:49:37;;;;;;;16.38;6.15;;;;;;;13.43;92.01;102026.44;5017837;28;96658;-30
2022/10/31 09:52:32;;;;;;;12.90;6.10;;;;;;;13.46;91.98;102012.66;5016201;28;96730;-29
2022/10/31 09:55:04;;;;;;;11.90;5.95;;;;;;;13.47;92.20;102008.97;5002555;28;97949;-30
2022/10/31 09:57:35;;;;;;;17.27;6.35;;;;;;;13.50;91.29;102011.53;5017248;28;97460;-29
2022/10/31 10:00:03;;;;;;;14.07;5.60;;;;;;;13.55;91.48;102009.41;5016008;28;96736;-29
2022/10/31 10:02:41;;;;;;;15.15;6.55;;;;;;;13.60;91.62;102010.03;5016010;28;96924;-29
2022/10/31 10:05:13;;;;;;;16.10;5.80;;;;;;;13.66;91.70;101997.91;5015588;28;101062;-31
2022/10/31 10:07:45;;;;;;;12.43;5.50;;;;;;;13.71;91.38;102004.00;5015456;28;101384;-29
2022/10/31 10:10:36;;;;;;;11.90;5.78;;;;;;;13.76;91.41;101991.88;5015874;28;96764;-31
2022/10/31 10:13:22;;;;;;;11.73;5.43;;;;;;;13.82;91.85;101985.19;5016132;28;96770;-29
2022/10/31 10:16:03;;;;;;;13.57;5.95;;;;;;;13.89;91.38;101983.88;5015819;28;98048;-32
2022/10/31 10:18:43;;;;;;;16.85;6.03;;;;;;;13.97;91.37;101983.47;5015275;28;100799;-29
2022/10/31 10:21:37;;;;;;;11.98;5.53;;;;;;;14.03;90.82;101974.91;5016407;28;96619;-30
2022/10/31 10:24:25;;;;;;;13.13;5.63;;;;;;;14.28;91.08;101968.91;5015207;28;96772;-31
2022/10/31 10:27:22;;;;;;;10.13;4.97;;;;;;;14.69;89.67;101965.59;5016820;28;97936;-29
2022/10/31 10:30:08;;;;;;;14.57;5.57;;;;;;;14.94;88.95;101955.88;5000383;28;100864;-30
2022/10/31 10:32:43;;;;;;;14.45;5.70;;;;;;;15.19;87.47;101955.22;5015413;28;96590;-29
2022/10/31 10:35:19;;;;;;;12.68;5.18;;;;;;;15.40;86.81;101953.00;5015523;28;96683;-29
2022/10/31 10:37:47;;;;;;;15.55;5.40;;;;;;;15.54;86.03;101936.59;5016351;28;97945;-30
2022/10/31 10:40:21;;;;;;;12.10;5.75;;;;;;;15.40;86.20;101937.47;5015469;28;100634;-29
2022/10/31 10:43:22;;;;;;;17.77;6.30;;;;;;;15.27;86.83;101945.56;5014972;28;96640;-30
2022/10/31 10:49:09;;;;;;;16.70;6.47;;;;;;;15.18;87.27;101943.44;5015629;28;96940;-29
2022/10/31 10:51:46;;;;;;;14.98;6.03;;;;;;;15.17;87.35;101936.22;5015003;28;101108;-29
2022/10/31 10:54:35;;;;;;;14.27;6.05;;;;;;;15.13;87.26;101931.03;5015018;28;96629;-29
2022/10/31 10:57:12;;;;;;;11.85;6.30;;;;;;;15.12;87.58;101923.84;5015560;28;96561;-29
2022/10/31 10:59:38;;;;;;;13.95;6.22;;;;;;;15.09;87.79;101919.47;5014403;28;100860;-29
2022/10/31 11:02:16;;;;;;;10.93;5.20;;;;;;;15.01;87.79;101924.50;5016266;28;97395;-29
2022/10/31 11:04:43;;;;;;;16.67;6.18;;;;;;;14.98;88.09;101935.63;5016387;28;96557;-30
2022/10/31 11:07:09;;;;;;;18.70;6.30;;;;;;;15.01;88.47;101929.97;5032023;28;96551;-29
2022/10/31 11:09:36;;;;;;;15.52;7.22;;;;;;;14.96;88.48;101923.91;5015948;28;99558;-29
2022/10/31 11:12:10;;;;;;;17.50;6.70;;;;;;;14.93;88.52;101918.66;5031202;28;100568;-30
2022/10/31 11:14:51;;;;;;;16.55;6.20;;;;;;;14.94;88.49;101926.75;5014269;28;96602;-30
2022/10/31 11:17:29;;;;;;;16.20;7.43;;;;;;;14.86;88.60;101910.84;5014611;28;96868;-29
2022/10/31 11:20:13;;;;;;;14.75;6.20;;;;;;;14.85;88.87;101906.38;5015996;28;98138;-29
2022/10/31 11:22:44;;;;;;;15.57;5.95;;;;;;;14.86;88.84;101904.53;5014342;28;100748;-31
2022/10/31 11:25:26;;;;;;;16.75;5.60;;;;;;;14.83;89.20;101904.72;5016274;28;96478;-29
2022/10/31 11:28:10;;;;;;;14.05;5.78;;;;;;;14.80;89.29;101894.00;5014622;28;96820;-30
2022/10/31 11:30:46;;;;;;;15.32;5.60;;;;;;;14.78;89.19;101901.41;5015401;28;98076;-31
2022/10/31 11:33:22;;;;;;;19.30;7.97;;;;;;;14.80;89.18;101894.88;5014611;28;99571;-29
2022/10/31 11:35:49;;;;;;;15.45;5.50;;;;;;;14.77;89.69;101884.16;5014430;28;96632;-29